Flight Track Log - Related Links

Times and Time Zones

All times are in EDT time to prevent confusion due to time zone crossing. See the FLG3800 flight status page for this flight to view local times or setup timezone preferences in your user account.

Time Position Orientation Groundspeed Altitude Reporting Facility
EDT Latitude Longitude Course Direction KTS MPH feet Rate Location/Type
Fri 08:07:24 AM 41.7161 -86.3644 73° East 168 193 2,400  Level Chicago Center
Fri 08:08:26 AM 41.7606 -86.3525 11° North 262 302 4,400 2,032 Climbing Chicago Center
Fri 08:09:00 AM 41.7667 -86.0256 90° East  Level FlightAware Approximate
Fri 08:09:28 AM 41.8003 -86.2353 66° East 281 323 6,600  Level Chicago Center
Fri 08:10:00 AM 41.7849 -85.9274 71° East  Level FlightAware Approximate
Fri 08:10:29 AM 41.8339 -86.1278 67° East 304 350 8,900  Level Chicago Center
Fri 08:11:00 AM 41.8091 -85.8304 71° East  Level FlightAware Approximate
Fri 08:11:31 AM 41.8539 -86.0081 77° East 326 375 10,800  Level Chicago Center
Fri 08:12:00 AM 41.8322 -85.7330 73° East  Level FlightAware Approximate
Fri 08:12:33 AM 41.8778 -85.8756 76° East 349 402 11,900  Level Chicago Center
Fri 08:13:35 AM 41.9028 -85.7331 77° East 377 434 13,000 532 Climbing Chicago Center
Fri 08:14:37 AM 41.9286 -85.5844 77° East 399 459 13,000  Level Chicago Center
Fri 08:15:38 AM 41.9544 -85.4378 77° East 400 460 13,000  Level Chicago Center
Fri 08:16:40 AM 41.9792 -85.2906 77° East 401 461 13,000  Level Chicago Center
Fri 08:17:42 AM 42.0089 -85.1131 77° East 403 464 13,000  Level Chicago Center
Fri 08:18:44 AM 42.0328 -84.9653 78° East 403 464 13,000  Level Chicago Center
Fri 08:19:46 AM 42.0264 -84.8169 93° East 407 468 13,000  Level Chicago Center
Fri 08:20:48 AM 41.9900 -84.6764 109° East 401 461 13,000 -253 Level Chicago Center
Fri 08:22:32 AM 41.9250 -84.4208 109° East 393 452 12,300 -400 Descending Cleveland Center
Fri 08:23:18 AM 41.8969 -84.3217 111° Southeast 388 447 12,000 -168 Descending Cleveland Center
Fri 08:24:19 AM 41.8619 -84.1800 108° East 396 456 12,000  Level Cleveland Center
Fri 08:25:31 AM 41.8483 -84.0064 96° East 399 459 12,000  Level Cleveland Center
Fri 08:26:32 AM 41.9078 -83.9036 52° Northeast 347 399 12,000  Level Cleveland Center
Fri 08:27:32 AM 41.9817 -83.7983 47° Northeast 353 406 12,000 -300 Level Cleveland Center
Fri 08:28:32 AM 42.0575 -83.6958 45° Northeast 365 420 11,400 -500 Descending Cleveland Center
Fri 08:29:32 AM 42.1200 -83.6122 45° Northeast 351 404 11,000 -200 Descending Cleveland Center
Fri 08:30:32 AM 42.1803 -83.5478 38° Northeast 295 339 11,000 -350 Level Cleveland Center
Fri 08:31:32 AM 42.2500 -83.5061 24° Northeast 263 303 10,300 -1,350 Descending Cleveland Center
Fri 08:32:32 AM 42.3158 -83.4614 27° Northeast 257 296 8,300 -2,079 Descending Cleveland Center
Fri 08:33:39 AM 42.3981 -83.4258 18° North 251 289 5,900 -1,748 Descending Cleveland Center
Fri 08:34:39 AM 42.4308 -83.3569 57° Northeast 239 275 4,600 -942 Descending Cleveland Center
Fri 08:35:40 AM 42.3969 -83.2964 127° Southeast 180 207 4,000 -683 Descending Cleveland Center
Fri 08:36:42 AM 42.3450 -83.2858 171° South 185 213 3,200 -750 Descending Cleveland Center
Fri 08:37:48 AM 42.3006 -83.3119 203° Southwest 160 184 2,400 -727 Descending Cleveland Center

Login

Don't have an account? Register now (free) for customized features, flight alerts, and more!